createdAt,value
2019-02-20T00:01:44.729Z,12.83
2019-02-20T00:04:14.635Z,11.80
2019-02-20T00:06:44.863Z,12.70
2019-02-20T00:09:14.768Z,12.10
2019-02-20T00:11:44.094Z,11.90
2019-02-20T00:14:13.921Z,11.50
2019-02-20T00:16:43.839Z,12.27
2019-02-20T00:19:13.762Z,14.53
2019-02-20T00:21:43.617Z,13.17
2019-02-20T00:24:13.545Z,12.90
2019-02-20T00:26:43.445Z,13.70
2019-02-20T00:29:13.374Z,13.33
2019-02-20T00:31:42.691Z,12.83
2019-02-20T00:34:12.537Z,12.27
2019-02-20T00:36:42.457Z,13.47
2019-02-20T00:39:12.417Z,12.60
2019-02-20T00:41:42.265Z,12.83
2019-02-20T00:44:20.761Z,13.50
2019-02-20T00:47:08.317Z,12.80
2019-02-20T00:49:44.142Z,12.83
2019-02-20T00:52:39.145Z,13.63
2019-02-20T00:55:09.133Z,13.20
2019-02-20T00:57:39.312Z,13.40
2019-02-20T01:00:09.265Z,12.50
2019-02-20T01:02:39.471Z,13.30
2019-02-20T01:05:08.776Z,13.90
2019-02-20T01:07:38.606Z,13.60
2019-02-20T01:10:09.171Z,13.67
2019-02-20T01:12:39.051Z,13.27
2019-02-20T01:15:09.061Z,13.20
2019-02-20T01:17:38.305Z,13.40
2019-02-20T01:20:08.950Z,12.90
2019-02-20T01:22:38.861Z,11.77
2019-02-20T01:25:08.993Z,11.73
2019-02-20T01:27:38.938Z,12.60
2019-02-20T01:30:09.246Z,12.30
2019-02-20T01:32:39.168Z,12.43
2019-02-20T01:35:08.621Z,11.83
2019-02-20T01:37:37.839Z,11.23
2019-02-20T01:40:07.081Z,12.23
2019-02-20T01:42:36.909Z,11.53
2019-02-20T01:45:07.206Z,10.67
2019-02-20T01:47:37.393Z,11.23
2019-02-20T01:50:07.215Z,11.20
2019-02-20T01:52:36.957Z,9.90
2019-02-20T01:55:07.453Z,9.67
2019-02-20T01:57:37.302Z,10.73
2019-02-20T02:00:07.868Z,10.17
2019-02-20T02:02:37.053Z,9.70
2019-02-20T02:05:14.843Z,10.70
2019-02-20T02:07:38.999Z,10.17
2019-02-20T02:10:08.445Z,11.03
2019-02-20T02:12:38.213Z,10.20
2019-02-20T02:15:08.394Z,10.30
2019-02-20T02:17:37.701Z,9.20
2019-02-20T02:20:08.372Z,10.43
2019-02-20T02:22:38.354Z,9.63
2019-02-20T02:25:07.705Z,8.93
2019-02-20T02:27:37.514Z,10.83
2019-02-20T02:30:07.616Z,10.33
2019-02-20T02:32:36.832Z,9.50
2019-02-20T02:35:06.668Z,9.67
2019-02-20T02:37:36.218Z,10.50
2019-02-20T02:40:05.737Z,9.23
2019-02-20T02:42:35.004Z,9.47
2019-02-20T02:45:04.904Z,10.27
2019-02-20T02:47:34.496Z,11.33
2019-02-20T02:50:04.566Z,10.47
2019-02-20T02:52:34.461Z,11.00
2019-02-20T02:55:05.219Z,11.60
2019-02-20T02:57:34.502Z,10.93
2019-02-20T03:00:04.000Z,10.33
2019-02-20T03:02:33.822Z,12.37
2019-02-20T03:05:03.150Z,12.13
2019-02-20T03:07:33.037Z,11.37
2019-02-20T03:10:03.293Z,11.93
2019-02-20T03:12:33.241Z,11.90
2019-02-20T03:15:03.229Z,12.17
2019-02-20T03:17:32.552Z,12.73
2019-02-20T03:20:01.781Z,13.23
2019-02-20T03:22:31.018Z,12.63
2019-02-20T03:25:00.854Z,11.53
2019-02-20T03:27:30.863Z,11.17
2019-02-20T03:30:00.450Z,11.77
2019-02-20T03:32:30.316Z,10.93
2019-02-20T03:34:59.616Z,10.17
2019-02-20T03:37:29.490Z,11.37
2019-02-20T03:39:59.430Z,11.43
2019-02-20T03:42:29.412Z,11.47
2019-02-20T03:44:59.389Z,10.90
2019-02-20T03:47:29.351Z,11.07
2019-02-20T03:49:58.695Z,11.00
2019-02-20T03:52:28.260Z,11.00
2019-02-20T03:54:57.483Z,10.37
2019-02-20T03:57:26.724Z,11.07
2019-02-20T03:59:56.854Z,11.53
2019-02-20T04:02:26.778Z,11.73
2019-02-20T04:04:56.762Z,11.13
2019-02-20T04:07:26.934Z,12.03
2019-02-20T04:09:57.220Z,12.80
2019-02-20T04:12:27.157Z,11.83
2019-02-20T04:14:57.376Z,12.07
2019-02-20T04:17:27.357Z,12.60
2019-02-20T04:19:56.713Z,12.87
2019-02-20T04:22:26.558Z,12.07
2019-02-20T04:24:56.591Z,11.30
2019-02-20T04:27:26.577Z,13.10
2019-02-20T04:29:56.519Z,11.57
2019-02-20T04:32:26.489Z,12.83
2019-02-20T04:34:55.811Z,11.67
2019-02-20T04:37:25.978Z,11.80
2019-02-20T04:39:55.854Z,13.03
2019-02-20T04:42:25.186Z,13.73
2019-02-20T04:44:54.945Z,13.80
2019-02-20T04:47:24.298Z,14.17
2019-02-20T04:49:54.591Z,13.70
2019-02-20T04:52:24.526Z,12.83
2019-02-20T04:54:53.869Z,14.60
2019-02-20T04:57:23.729Z,13.03
2019-02-20T04:59:53.966Z,12.93
2019-02-20T05:02:23.971Z,14.60
2019-02-20T05:04:53.918Z,14.47
2019-02-20T05:07:23.270Z,14.47
2019-02-20T05:09:53.387Z,16.57
2019-02-20T05:12:23.951Z,13.67
2019-02-20T05:14:54.489Z,14.83
2019-02-20T05:17:24.427Z,14.40
2019-02-20T05:19:54.350Z,15.07
2019-02-20T05:22:23.659Z,15.97
2019-02-20T05:24:52.873Z,13.63
2019-02-20T05:27:22.417Z,14.63
2019-02-20T05:29:52.274Z,14.13
2019-02-20T05:32:22.209Z,15.07
2019-02-20T05:34:52.181Z,15.07
2019-02-20T05:37:22.141Z,15.53
2019-02-20T05:39:52.085Z,15.33
2019-02-20T05:42:22.022Z,15.37
2019-02-20T05:44:51.364Z,15.10
2019-02-20T05:47:21.190Z,15.97
2019-02-20T05:49:51.162Z,14.30
2019-02-20T05:52:21.093Z,14.43
2019-02-20T05:54:50.986Z,15.23
2019-02-20T05:57:20.933Z,15.13
2019-02-20T05:59:50.886Z,14.90
2019-02-20T06:02:20.861Z,14.97
2019-02-20T06:04:50.816Z,14.47
2019-02-20T06:07:20.190Z,12.83
2019-02-20T06:09:49.461Z,13.90
2019-02-20T06:12:19.303Z,15.07
2019-02-20T06:14:49.281Z,13.97
2019-02-20T06:17:18.625Z,15.03
2019-02-20T06:19:48.460Z,15.47
2019-02-20T06:22:18.398Z,15.60
2019-02-20T06:24:48.425Z,15.83
2019-02-20T06:27:18.105Z,15.93
2019-02-20T06:29:47.294Z,15.13
2019-02-20T06:32:17.423Z,15.50
2019-02-20T06:34:47.417Z,15.43
2019-02-20T06:37:17.289Z,16.10
2019-02-20T06:39:46.697Z,16.17
2019-02-20T06:42:16.546Z,16.53
2019-02-20T06:44:45.838Z,16.73
2019-02-20T06:47:15.670Z,16.73
2019-02-20T06:49:45.566Z,17.47
2019-02-20T06:52:15.562Z,16.40
2019-02-20T06:54:53.505Z,18.47
2019-02-20T06:57:15.926Z,17.17
2019-02-20T06:59:45.189Z,18.30
2019-02-20T07:02:15.021Z,17.47
2019-02-20T07:05:21.585Z,16.47
2019-02-20T07:08:20.642Z,18.50
2019-02-20T07:10:53.693Z,18.43
2019-02-20T07:13:25.909Z,17.60
2019-02-20T07:16:37.834Z,18.57
2019-02-20T07:19:10.135Z,18.87
2019-02-20T07:21:52.609Z,19.43
2019-02-20T07:24:30.748Z,19.30
2019-02-20T07:27:53.911Z,19.83
2019-02-20T07:30:23.887Z,20.00
2019-02-20T07:32:53.809Z,19.33
2019-02-20T07:35:23.695Z,20.97
2019-02-20T07:37:53.651Z,21.50
2019-02-20T07:40:23.597Z,19.20
2019-02-20T07:42:53.421Z,20.10
2019-02-20T07:45:23.315Z,19.30
2019-02-20T07:47:53.256Z,18.90
2019-02-20T07:50:23.497Z,19.17
2019-02-20T07:52:52.852Z,19.07
2019-02-20T07:55:22.508Z,19.60
2019-02-20T07:57:52.304Z,17.80
2019-02-20T08:00:21.660Z,16.47
2019-02-20T08:02:51.468Z,16.37
2019-02-20T08:05:21.632Z,14.20
2019-02-20T08:07:51.582Z,15.80
2019-02-20T08:10:21.589Z,15.00
2019-02-20T08:12:52.509Z,14.97
2019-02-20T08:15:22.702Z,12.83
2019-02-20T08:17:52.625Z,12.93
2019-02-20T08:20:21.961Z,12.63
2019-02-20T08:22:51.809Z,13.53
2019-02-20T08:25:23.143Z,13.07
2019-02-20T08:27:52.723Z,14.03
2019-02-20T08:30:22.075Z,12.73
2019-02-20T08:32:51.625Z,12.97
2019-02-20T08:35:21.836Z,13.60
2019-02-20T08:37:51.186Z,13.60
2019-02-20T08:40:21.014Z,14.63
2019-02-20T08:42:50.965Z,13.37
2019-02-20T08:45:20.883Z,14.93
2019-02-20T08:47:50.885Z,12.70
2019-02-20T08:50:20.819Z,13.30
2019-02-20T08:52:50.811Z,12.37
2019-02-20T08:55:20.805Z,12.90
2019-02-20T08:57:50.765Z,12.00
2019-02-20T09:00:21.118Z,12.60
2019-02-20T09:02:51.163Z,12.57
2019-02-20T09:05:21.222Z,12.63
2019-02-20T09:07:50.644Z,12.47
2019-02-20T09:10:20.531Z,13.40
2019-02-20T09:12:50.506Z,13.90
2019-02-20T09:15:20.466Z,15.23
2019-02-20T09:17:50.416Z,13.47
2019-02-20T09:20:20.532Z,13.73
2019-02-20T09:22:49.882Z,13.43
2019-02-20T09:25:20.262Z,14.03
2019-02-20T09:27:50.229Z,13.20
2019-02-20T09:30:28.243Z,13.17
2019-02-20T09:32:51.456Z,12.70
2019-02-20T09:35:23.082Z,13.97
2019-02-20T09:37:53.033Z,14.00
2019-02-20T09:40:23.010Z,14.10
2019-02-20T09:42:52.336Z,14.67
2019-02-20T09:45:22.114Z,15.03
2019-02-20T09:47:52.133Z,14.83
2019-02-20T09:50:21.433Z,14.47
2019-02-20T09:52:52.767Z,14.53
2019-02-20T09:55:22.306Z,15.77
2019-02-20T09:57:52.210Z,14.63
2019-02-20T10:00:22.380Z,14.47
2019-02-20T10:02:52.727Z,16.00
2019-02-20T10:05:22.082Z,16.03
2019-02-20T10:07:52.285Z,15.23
2019-02-20T10:10:22.153Z,16.70
2019-02-20T10:12:52.109Z,16.83
2019-02-20T10:15:22.103Z,16.30
2019-02-20T10:17:52.050Z,17.07
2019-02-20T10:20:21.414Z,16.83
2019-02-20T10:22:51.233Z,16.13
2019-02-20T10:25:21.173Z,16.37
2019-02-20T10:27:51.118Z,15.77
2019-02-20T10:30:21.086Z,16.20
2019-02-20T10:32:51.041Z,16.73
2019-02-20T10:35:21.015Z,16.03
2019-02-20T10:37:50.633Z,15.93
2019-02-20T10:40:20.479Z,16.13
2019-02-20T10:42:49.815Z,15.17
2019-02-20T10:45:19.734Z,14.87
2019-02-20T10:47:49.993Z,16.70
2019-02-20T10:50:20.033Z,15.20
2019-02-20T10:52:49.727Z,14.80
2019-02-20T10:55:19.066Z,16.27
2019-02-20T10:57:48.910Z,15.73
2019-02-20T11:00:24.252Z,16.13
2019-02-20T11:02:54.368Z,13.90
2019-02-20T11:05:23.741Z,13.53
2019-02-20T11:07:53.578Z,15.50
2019-02-20T11:10:24.097Z,14.07
2019-02-20T11:12:54.213Z,13.43
2019-02-20T11:15:23.568Z,12.73
2019-02-20T11:17:53.396Z,13.90
2019-02-20T11:20:23.383Z,14.00
2019-02-20T11:22:53.313Z,13.57
2019-02-20T11:25:24.165Z,12.47
2019-02-20T11:27:54.117Z,13.93
2019-02-20T11:30:24.316Z,14.97
2019-02-20T11:32:54.218Z,13.93
2019-02-20T11:35:25.645Z,13.20
2019-02-20T11:37:55.209Z,13.23
2019-02-20T11:40:24.470Z,13.97
2019-02-20T11:42:54.348Z,16.40
2019-02-20T11:45:24.262Z,15.43
2019-02-20T11:47:54.614Z,14.37
2019-02-20T11:50:24.647Z,13.83
2019-02-20T11:52:54.676Z,14.50
2019-02-20T11:55:24.861Z,14.07
2019-02-20T11:58:00.503Z,14.63
2019-02-20T12:00:26.529Z,14.90
2019-02-20T12:02:56.422Z,14.90
2019-02-20T12:05:26.395Z,12.40
2019-02-20T12:07:56.505Z,11.73
2019-02-20T12:10:25.866Z,14.63
2019-02-20T12:12:55.725Z,14.33
2019-02-20T12:15:25.095Z,13.27
2019-02-20T12:17:54.990Z,12.90
2019-02-20T12:20:24.334Z,11.93
2019-02-20T12:22:53.587Z,11.60
2019-02-20T12:25:23.449Z,11.87
2019-02-20T12:27:53.418Z,11.30
2019-02-20T12:30:23.720Z,10.27
2019-02-20T12:32:53.689Z,11.77
2019-02-20T12:35:23.652Z,12.00
2019-02-20T12:37:53.616Z,10.60
2019-02-20T12:40:23.580Z,11.87
2019-02-20T12:42:53.547Z,12.47
2019-02-20T12:45:22.800Z,12.00
2019-02-20T12:47:52.990Z,12.17
2019-02-20T12:50:24.673Z,12.80
2019-02-20T12:52:53.943Z,13.80
2019-02-20T12:55:23.812Z,14.73
2019-02-20T12:57:53.781Z,13.43
2019-02-20T13:00:23.651Z,14.37
2019-02-20T13:02:53.634Z,14.00
2019-02-20T13:05:23.703Z,14.23
2019-02-20T13:07:53.326Z,13.03
2019-02-20T13:10:23.170Z,12.73
2019-02-20T13:12:53.157Z,11.77
2019-02-20T13:15:23.155Z,11.50
2019-02-20T13:17:53.166Z,10.80
2019-02-20T13:20:22.448Z,10.93
2019-02-20T13:22:52.281Z,10.87
2019-02-20T13:25:21.973Z,11.47
2019-02-20T13:27:51.858Z,11.23
2019-02-20T13:30:21.209Z,12.27
2019-02-20T13:32:51.254Z,11.23
2019-02-20T13:35:21.421Z,10.60
2019-02-20T13:37:51.412Z,11.13
2019-02-20T13:40:20.749Z,9.80
2019-02-20T13:42:50.647Z,10.60
2019-02-20T13:45:20.623Z,9.87
2019-02-20T13:47:50.337Z,10.40
2019-02-20T13:50:20.204Z,10.83
2019-02-20T13:52:52.245Z,10.30
2019-02-20T13:55:21.785Z,10.73
2019-02-20T13:57:51.743Z,10.57
2019-02-20T14:00:22.009Z,9.60
2019-02-20T14:02:51.968Z,10.13
2019-02-20T14:05:22.255Z,10.90
2019-02-20T14:07:51.626Z,9.57
2019-02-20T14:10:20.881Z,8.77
2019-02-20T14:12:50.163Z,10.30
2019-02-20T14:15:20.009Z,9.53
2019-02-20T14:17:50.275Z,9.20
2019-02-20T14:20:20.595Z,9.30
2019-02-20T14:22:49.949Z,8.67
2019-02-20T14:25:19.854Z,9.13
2019-02-20T14:27:50.064Z,9.67
2019-02-20T14:30:20.382Z,9.93
2019-02-20T14:32:49.717Z,9.40
2019-02-20T14:35:20.001Z,9.30
2019-02-20T14:37:49.326Z,9.20
2019-02-20T14:40:19.197Z,9.83
2019-02-20T14:42:49.423Z,9.67
2019-02-20T14:45:19.394Z,9.27
2019-02-20T14:47:49.351Z,8.67
2019-02-20T14:50:19.879Z,8.27
2019-02-20T14:52:49.214Z,8.10
2019-02-20T14:55:19.474Z,8.37
2019-02-20T14:57:51.004Z,8.10
2019-02-20T15:00:21.178Z,8.50
2019-02-20T15:02:50.529Z,9.10
2019-02-20T15:05:20.222Z,9.10
2019-02-20T15:07:50.082Z,8.70
2019-02-20T15:10:20.047Z,9.53
2019-02-20T15:12:50.262Z,9.10
2019-02-20T15:15:20.215Z,8.80
2019-02-20T15:17:50.798Z,9.03
2019-02-20T15:20:21.089Z,9.80
2019-02-20T15:22:50.433Z,9.60
2019-02-20T15:25:20.325Z,9.63
2019-02-20T15:27:49.960Z,8.73
2019-02-20T15:30:20.171Z,9.83
2019-02-20T15:32:50.928Z,9.13
2019-02-20T15:35:20.957Z,9.70
2019-02-20T15:37:50.894Z,10.17
2019-02-20T15:40:20.877Z,10.37
2019-02-20T15:42:51.161Z,9.80
2019-02-20T15:45:21.166Z,9.80
2019-02-20T15:47:51.098Z,9.73
2019-02-20T15:50:21.093Z,10.47
2019-02-20T15:52:50.385Z,9.97
2019-02-20T15:55:20.313Z,9.87
2019-02-20T15:57:50.242Z,9.30
2019-02-20T16:00:21.330Z,10.00
2019-02-20T16:02:51.269Z,8.93
2019-02-20T16:05:21.274Z,9.60
2019-02-20T16:07:50.586Z,9.00
2019-02-20T16:10:21.613Z,9.50
2019-02-20T16:12:51.665Z,11.55
2019-02-20T16:15:21.672Z,10.23
2019-02-20T16:17:51.053Z,9.33
2019-02-20T16:20:20.329Z,9.67
2019-02-20T16:22:50.280Z,11.07
2019-02-20T16:25:20.527Z,10.03
2019-02-20T16:27:50.198Z,10.43
2019-02-20T16:30:19.455Z,10.43
2019-02-20T16:32:51.184Z,10.57
2019-02-20T16:35:20.377Z,10.03
2019-02-20T16:37:49.730Z,10.20
2019-02-20T16:40:19.590Z,10.70
2019-02-20T16:42:49.250Z,10.13
2019-02-20T16:45:19.509Z,11.00
2019-02-20T16:47:49.461Z,10.20
2019-02-20T16:50:19.393Z,10.10
2019-02-20T16:52:49.443Z,10.53
2019-02-20T16:55:20.022Z,10.50
2019-02-20T16:57:56.249Z,10.63
2019-02-20T17:00:21.626Z,10.33
2019-02-20T17:02:52.090Z,10.80
2019-02-20T17:05:22.039Z,11.97
2019-02-20T17:07:52.189Z,10.67
2019-02-20T17:10:22.673Z,10.50
2019-02-20T17:12:52.628Z,10.53
2019-02-20T17:15:22.862Z,9.87
2019-02-20T17:17:53.199Z,11.53
2019-02-20T17:20:22.685Z,11.93
2019-02-20T17:22:52.089Z,10.63
2019-02-20T17:25:22.264Z,11.50
2019-02-20T17:27:51.618Z,11.70
2019-02-20T17:30:20.945Z,11.27
2019-02-20T17:32:50.511Z,11.33
2019-02-20T17:35:20.375Z,12.70
2019-02-20T17:37:49.704Z,12.67
2019-02-20T17:40:18.948Z,11.07
2019-02-20T17:42:48.554Z,11.53
2019-02-20T17:45:17.870Z,11.83
2019-02-20T17:47:48.116Z,11.57
2019-02-20T17:50:18.086Z,10.90
2019-02-20T17:52:47.441Z,14.18
2019-02-20T17:55:17.641Z,12.10
2019-02-20T17:57:47.650Z,11.53
2019-02-20T18:00:19.464Z,11.67
2019-02-20T18:02:48.808Z,11.63
2019-02-20T18:05:18.682Z,11.60
2019-02-20T18:07:51.799Z,12.37
2019-02-20T18:10:19.708Z,12.20
2019-02-20T18:12:48.905Z,12.23
2019-02-20T18:15:19.900Z,11.97
2019-02-20T18:17:49.257Z,12.70
2019-02-20T18:20:19.090Z,13.90
2019-02-20T18:22:49.134Z,16.43
2019-02-20T18:25:18.508Z,16.97
2019-02-20T18:27:48.538Z,15.37
2019-02-20T18:30:18.504Z,15.80
2019-02-20T18:32:48.513Z,14.27
2019-02-20T18:35:18.470Z,15.30
2019-02-20T18:37:48.421Z,14.40
2019-02-20T18:40:17.795Z,14.13
2019-02-20T18:42:47.086Z,14.80
2019-02-20T18:45:16.429Z,13.87
2019-02-20T18:47:45.720Z,14.97
2019-02-20T18:50:15.873Z,14.67
2019-02-20T18:52:45.294Z,14.70
2019-02-20T18:55:15.597Z,16.77
2019-02-20T18:57:44.873Z,16.37
2019-02-20T19:00:15.608Z,14.90
2019-02-20T19:02:45.022Z,14.60
2019-02-20T19:05:15.250Z,15.10
2019-02-20T19:07:44.567Z,14.93
2019-02-20T19:10:15.944Z,15.90
2019-02-20T19:12:53.027Z,12.63
2019-02-20T19:15:31.129Z,12.90
2019-02-20T19:18:21.355Z,12.80
2019-02-20T19:21:12.122Z,12.03
2019-02-20T19:24:00.574Z,12.60
2019-02-20T19:26:55.126Z,11.27
2019-02-20T19:29:55.833Z,11.40
2019-02-20T19:33:03.944Z,10.43
2019-02-20T19:35:55.210Z,11.20
2019-02-20T19:38:50.215Z,10.53
2019-02-20T19:41:26.901Z,12.57
2019-02-20T19:44:25.900Z,11.57
2019-02-20T19:47:13.031Z,10.37
2019-02-20T19:50:01.369Z,11.40
2019-02-20T19:53:33.647Z,11.63
2019-02-20T19:57:06.118Z,12.30
2019-02-20T20:00:02.225Z,11.87
2019-02-20T20:03:00.389Z,12.07
2019-02-20T20:05:47.637Z,10.50
2019-02-20T20:09:01.857Z,10.43
2019-02-20T20:11:59.289Z,9.90
2019-02-20T20:14:46.541Z,10.43
2019-02-20T20:17:33.542Z,10.30
2019-02-20T20:20:24.438Z,11.97
2019-02-20T20:23:23.932Z,11.33
2019-02-20T20:26:22.797Z,10.57
2019-02-20T20:29:17.472Z,9.60
2019-02-20T20:32:36.054Z,10.33
2019-02-20T20:35:19.734Z,9.67
2019-02-20T20:38:18.562Z,11.07
2019-02-20T20:41:09.821Z,11.13
2019-02-20T20:43:49.113Z,10.30
2019-02-20T20:46:37.023Z,9.43
2019-02-20T20:49:30.050Z,11.33
2019-02-20T20:52:18.483Z,9.57
2019-02-20T20:55:02.338Z,10.53
2019-02-20T20:58:14.380Z,10.43
2019-02-20T21:01:11.794Z,10.23
2019-02-20T21:04:11.157Z,9.50
2019-02-20T21:06:48.637Z,10.57
2019-02-20T21:09:31.329Z,11.57
2019-02-20T21:12:35.179Z,10.00
2019-02-20T21:15:29.536Z,10.60
2019-02-20T21:18:09.975Z,10.27
2019-02-20T21:21:04.206Z,9.63
2019-02-20T21:24:02.793Z,10.70
2019-02-20T21:26:43.677Z,10.27
2019-02-20T21:29:38.029Z,10.90
2019-02-20T21:32:39.427Z,12.50
2019-02-20T21:35:15.713Z,13.33
2019-02-20T21:38:16.352Z,14.70
2019-02-20T21:41:12.730Z,12.63
2019-02-20T21:44:34.857Z,11.40
2019-02-20T21:47:32.725Z,13.30
2019-02-20T21:50:29.178Z,12.10
2019-02-20T21:53:07.903Z,11.20
2019-02-20T21:56:19.461Z,11.30
2019-02-20T21:59:06.528Z,10.07
2019-02-20T22:02:00.671Z,10.47
2019-02-20T22:04:51.958Z,9.93
2019-02-20T22:07:43.060Z,11.13
2019-02-20T22:10:32.799Z,10.63
2019-02-20T22:13:48.772Z,11.73
2019-02-20T22:17:18.079Z,10.67
2019-02-20T22:20:04.890Z,10.77
2019-02-20T22:23:19.501Z,10.77
2019-02-20T22:26:16.720Z,10.37
2019-02-20T22:29:01.165Z,9.47
2019-02-20T22:32:21.018Z,12.63
2019-02-20T22:35:05.898Z,10.70
2019-02-20T22:37:53.140Z,11.03
2019-02-20T22:40:38.325Z,11.23
2019-02-20T22:43:25.653Z,11.13
2019-02-20T22:46:42.878Z,10.83
2019-02-20T22:49:29.051Z,11.57
2019-02-20T22:52:04.221Z,12.13
2019-02-20T22:55:01.678Z,12.07
2019-02-20T22:58:11.543Z,10.77
2019-02-20T23:01:25.061Z,12.47
2019-02-20T23:04:35.271Z,12.27
2019-02-20T23:07:32.192Z,12.40
2019-02-20T23:10:40.740Z,12.37
2019-02-20T23:13:14.584Z,12.27
2019-02-20T23:15:44.438Z,13.67
2019-02-20T23:18:13.795Z,12.87
2019-02-20T23:20:43.062Z,12.13
2019-02-20T23:23:12.915Z,11.73
2019-02-20T23:25:42.914Z,12.97
2019-02-20T23:28:12.853Z,12.03
2019-02-20T23:30:44.979Z,12.37
2019-02-20T23:33:13.679Z,12.60
2019-02-20T23:35:42.933Z,13.63
2019-02-20T23:38:12.209Z,12.10
2019-02-20T23:40:41.762Z,12.23
2019-02-20T23:43:11.021Z,13.10
2019-02-20T23:45:40.925Z,13.20
2019-02-20T23:48:10.858Z,13.17
2019-02-20T23:50:41.100Z,12.10
2019-02-20T23:53:11.033Z,13.87
2019-02-20T23:55:41.020Z,13.03
2019-02-20T23:58:10.370Z,13.87
